Time;durP1;ratioP1;P1;durP2;ratioP2;P2;SDS_P1;SDS_P2;PMS_P1;PMS_P2;Temp;Humidity;BMP_temperature;BMP_pressure;BME280_temperature;BME280_humidity;BME280_pressure;Samples;Min_cycle;Max_cycle;Signal;HPM_P1;HPM_P2
2024/01/31 00:01:49;;;;;;;15.67;11.57;;;9.30;99.90;;;;;;5095855;28;20211;-87
2024/01/31 00:04:14;;;;;;;14.87;11.27;;;9.40;99.90;;;;;;5112989;28;20324;-84
2024/01/31 00:06:41;;;;;;;17.50;12.03;;;9.50;99.90;;;;;;5095060;28;20182;-83
2024/01/31 00:09:07;;;;;;;13.47;11.40;;;9.60;99.90;;;;;;5094750;28;20537;-87
2024/01/31 00:11:33;;;;;;;17.33;12.07;;;9.60;99.90;;;;;;5096001;28;20179;-88
2024/01/31 00:13:58;;;;;;;14.30;11.03;;;9.40;99.90;;;;;;5094630;28;20163;-85
2024/01/31 00:16:24;;;;;;;17.30;12.87;;;9.30;99.90;;;;;;5095886;28;20677;-86
2024/01/31 00:18:50;;;;;;;15.80;12.03;;;9.40;99.90;;;;;;5094973;28;20167;-84
2024/01/31 00:21:17;;;;;;;15.67;11.67;;;9.50;99.90;;;;;;5095536;28;20198;-87
2024/01/31 00:23:42;;;;;;;17.53;11.80;;;9.50;99.90;;;;;;5095524;28;20220;-82
2024/01/31 00:26:08;;;;;;;16.43;12.03;;;9.40;99.90;;;;;;5112880;28;20171;-86
2024/01/31 00:28:34;;;;;;;13.53;12.13;;;9.50;99.90;;;;;;5095904;28;20178;-83
2024/01/31 00:30:59;;;;;;;14.97;11.63;;;9.50;99.90;;;;;;5097098;28;20175;-88
2024/01/31 00:33:27;;;;;;;16.60;12.83;;;9.60;99.90;;;;;;5100925;28;20180;-88
2024/01/31 00:35:53;;;;;;;17.07;12.77;;;9.60;99.90;;;;;;5102011;28;20199;-87
2024/01/31 00:38:19;;;;;;;21.43;15.47;;;9.70;99.90;;;;;;5123890;28;20171;-84
2024/01/31 00:40:44;;;;;;;17.43;14.67;;;9.60;99.90;;;;;;5122734;28;20198;-81
2024/01/31 00:43:10;;;;;;;17.80;15.90;;;9.40;99.90;;;;;;5123742;28;20822;-86
2024/01/31 00:45:39;;;;;;;18.10;15.60;;;9.30;99.90;;;;;;5133284;28;20246;-84
2024/01/31 00:48:08;;;;;;;17.57;15.27;;;9.30;99.90;;;;;;5096676;28;20171;-86
2024/01/31 00:50:33;;;;;;;18.73;15.63;;;9.10;99.90;;;;;;5078482;28;20640;-84
2024/01/31 00:52:59;;;;;;;21.13;14.67;;;9.10;99.90;;;;;;5076715;28;20175;-83
2024/01/31 00:55:25;;;;;;;20.33;15.03;;;9.10;99.90;;;;;;5078475;28;20206;-86
2024/01/31 00:57:50;;;;;;;18.63;14.40;;;9.10;99.90;;;;;;5077741;28;20537;-83
2024/01/31 01:00:17;;;;;;;20.00;13.73;;;9.20;99.90;;;;;;5077855;28;20195;-83
2024/01/31 01:02:44;;;;;;;21.43;15.47;;;9.20;99.90;;;;;;5077399;28;20183;-87
2024/01/31 01:05:10;;;;;;;21.13;15.60;;;9.10;99.90;;;;;;5077745;28;20262;-84
2024/01/31 01:07:39;;;;;;;18.73;15.47;;;9.10;99.90;;;;;;5076872;28;20179;-87
2024/01/31 01:10:06;;;;;;;19.07;15.03;;;9.10;99.90;;;;;;5085058;28;20171;-86
2024/01/31 01:12:32;;;;;;;18.67;15.80;;;9.10;99.90;;;;;;5104250;28;20179;-87
2024/01/31 01:14:58;;;;;;;22.37;15.73;;;9.10;99.90;;;;;;5094664;28;20168;-82
2024/01/31 01:17:23;;;;;;;21.70;16.17;;;9.20;99.90;;;;;;5077712;28;20194;-87
2024/01/31 01:19:49;;;;;;;18.50;15.97;;;9.20;99.90;;;;;;5077068;28;20662;-87
2024/01/31 01:22:15;;;;;;;20.27;15.50;;;9.30;99.90;;;;;;5077318;28;20698;-88
2024/01/31 01:24:40;;;;;;;18.13;16.07;;;9.30;99.90;;;;;;5076680;28;20550;-84
2024/01/31 01:27:06;;;;;;;21.47;16.27;;;9.30;99.90;;;;;;5094410;28;20182;-87
2024/01/31 01:29:32;;;;;;;20.37;16.27;;;9.30;99.90;;;;;;5077436;28;20168;-86
2024/01/31 01:31:57;;;;;;;20.50;16.07;;;9.20;99.90;;;;;;5076464;28;20570;-84
2024/01/31 01:34:23;;;;;;;17.30;15.40;;;9.30;99.90;;;;;;5077020;28;20258;-84
2024/01/31 01:36:48;;;;;;;23.03;17.50;;;9.20;99.90;;;;;;5077438;28;20584;-87
2024/01/31 01:39:14;;;;;;;23.53;17.17;;;9.30;99.90;;;;;;5076404;28;20603;-88
2024/01/31 01:41:40;;;;;;;23.93;17.87;;;9.40;99.90;;;;;;5076172;28;20223;-85
2024/01/31 01:44:07;;;;;;;24.23;19.60;;;9.30;99.90;;;;;;5093536;28;20172;-85
2024/01/31 01:46:35;;;;;;;26.80;18.73;;;9.30;99.90;;;;;;5087434;28;20704;-84
2024/01/31 01:49:01;;;;;;;26.90;19.93;;;9.40;99.90;;;;;;5096256;28;20171;-86
2024/01/31 01:51:27;;;;;;;28.40;20.13;;;9.30;99.90;;;;;;5115072;28;20167;-87
2024/01/31 01:53:52;;;;;;;26.43;21.90;;;9.30;99.90;;;;;;5096819;28;20664;-86
2024/01/31 01:56:19;;;;;;;26.27;21.37;;;9.40;99.90;;;;;;5096047;28;20724;-89
2024/01/31 01:58:48;;;;;;;32.20;22.43;;;9.50;99.90;;;;;;5096545;28;20187;-87
2024/01/31 02:01:15;;;;;;;33.03;23.17;;;9.40;99.90;;;;;;5114857;28;20203;-84
2024/01/31 02:03:42;;;;;;;30.07;22.53;;;9.40;99.90;;;;;;5096703;28;20162;-85
2024/01/31 02:06:07;;;;;;;30.17;22.70;;;9.40;99.90;;;;;;5096718;28;20183;-88
2024/01/31 02:08:33;;;;;;;34.37;26.83;;;9.30;99.90;;;;;;5096802;28;20531;-85
2024/01/31 02:10:59;;;;;;;36.03;26.63;;;9.30;99.90;;;;;;5096919;28;20171;-83
2024/01/31 02:13:24;;;;;;;34.97;26.33;;;9.30;99.90;;;;;;5096833;28;20270;-86
2024/01/31 02:15:57;;;;;;;34.70;26.97;;;9.10;99.90;;;;;;5114533;28;20646;-84
2024/01/31 02:18:25;;;;;;;32.33;24.90;;;8.80;99.90;;;;;;5096398;28;20182;-88
2024/01/31 02:20:51;;;;;;;32.37;24.53;;;9.00;99.90;;;;;;5096817;28;20767;-84
2024/01/31 02:23:17;;;;;;;35.17;26.03;;;9.10;99.90;;;;;;5096664;28;20183;-87
2024/01/31 02:25:44;;;;;;;33.73;26.23;;;9.10;99.90;;;;;;5096451;28;20215;-84
2024/01/31 02:28:10;;;;;;;33.10;25.63;;;9.10;99.90;;;;;;5095861;28;20182;-88
2024/01/31 02:30:35;;;;;;;34.70;27.53;;;9.00;99.90;;;;;;5096428;28;20167;-89
2024/01/31 02:33:01;;;;;;;31.57;25.63;;;8.90;99.90;;;;;;5096243;28;20488;-84
2024/01/31 02:35:28;;;;;;;34.17;25.87;;;9.00;99.90;;;;;;5096463;28;20198;-83
2024/01/31 02:37:53;;;;;;;31.30;24.07;;;8.80;99.90;;;;;;5114363;28;20178;-86
2024/01/31 02:40:19;;;;;;;33.33;24.67;;;8.70;99.90;;;;;;5095737;28;20178;-83
2024/01/31 02:42:45;;;;;;;32.37;25.83;;;8.60;99.90;;;;;;5096979;28;20646;-85
2024/01/31 02:45:11;;;;;;;34.20;25.97;;;8.80;99.90;;;;;;5114517;28;20202;-85
2024/01/31 02:47:37;;;;;;;33.97;24.43;;;9.00;99.90;;;;;;5101151;28;20170;-86
2024/01/31 02:50:03;;;;;;;34.13;25.27;;;9.10;99.90;;;;;;5097983;28;20574;-85
2024/01/31 02:52:29;;;;;;;32.27;23.97;;;9.30;99.90;;;;;;5096379;28;20167;-83
2024/01/31 02:54:55;;;;;;;29.70;24.07;;;9.30;99.90;;;;;;5095033;28;20619;-83
2024/01/31 02:57:21;;;;;;;30.50;22.50;;;9.30;99.90;;;;;;5102969;28;20167;-86
2024/01/31 02:59:47;;;;;;;27.50;22.27;;;9.40;99.90;;;;;;5122218;28;20279;-87
2024/01/31 03:02:17;;;;;;;28.20;21.67;;;9.50;99.90;;;;;;5096573;28;20202;-83
2024/01/31 03:04:44;;;;;;;30.30;20.90;;;9.60;99.90;;;;;;5096046;28;20166;-86
2024/01/31 03:07:10;;;;;;;27.50;22.07;;;9.60;99.90;;;;;;5092768;28;20178;-87
2024/01/31 03:09:36;;;;;;;31.20;22.63;;;9.60;99.90;;;;;;5075635;28;20636;-87
2024/01/31 03:12:04;;;;;;;30.80;24.03;;;9.70;99.90;;;;;;5075917;28;20190;-87
2024/01/31 03:14:31;;;;;;;33.40;25.17;;;9.70;99.90;;;;;;5075597;28;20358;-87
2024/01/31 03:16:57;;;;;;;34.53;25.90;;;9.70;99.90;;;;;;5075030;28;20175;-85
2024/01/31 03:19:22;;;;;;;32.37;25.50;;;9.80;99.90;;;;;;5075531;28;20168;-83
2024/01/31 03:21:48;;;;;;;36.13;24.23;;;9.70;99.90;;;;;;5075205;28;20675;-85
2024/01/31 03:24:15;;;;;;;32.60;24.83;;;9.70;99.90;;;;;;5076089;28;20220;-86
2024/01/31 03:26:41;;;;;;;32.43;25.67;;;9.80;99.90;;;;;;5075485;28;20205;-85
2024/01/31 03:29:08;;;;;;;33.00;25.33;;;9.90;99.90;;;;;;5075924;28;20168;-85
2024/01/31 03:31:34;;;;;;;33.20;24.07;;;9.80;99.90;;;;;;5075087;28;20262;-83
2024/01/31 03:33:59;;;;;;;31.73;25.07;;;9.70;99.90;;;;;;5093819;28;20664;-85
2024/01/31 03:36:26;;;;;;;32.47;23.50;;;9.70;99.90;;;;;;5097993;28;20663;-83
2024/01/31 03:38:54;;;;;;;32.47;24.57;;;9.80;99.90;;;;;;5098963;28;20166;-85
2024/01/31 03:41:20;;;;;;;33.90;23.93;;;9.90;99.90;;;;;;5093997;28;20291;-85
2024/01/31 03:43:48;;;;;;;34.63;24.00;;;9.90;99.90;;;;;;5090325;28;20172;-85
2024/01/31 03:46:36;;;;;;;29.93;24.63;;;9.90;99.90;;;;;;5084772;28;20176;-88
2024/01/31 03:49:02;;;;;;;31.83;24.87;;;9.70;99.90;;;;;;5076981;28;20172;-88
2024/01/31 03:51:27;;;;;;;31.97;24.27;;;9.70;99.90;;;;;;5074741;28;20184;-86
2024/01/31 03:53:53;;;;;;;36.53;24.87;;;9.80;99.90;;;;;;5074711;28;20715;-84
2024/01/31 03:56:20;;;;;;;34.20;25.50;;;9.80;99.90;;;;;;5091929;28;20656;-88
2024/01/31 03:58:46;;;;;;;32.00;24.20;;;9.70;99.90;;;;;;5095218;28;20186;-85
2024/01/31 04:01:16;;;;;;;31.30;24.80;;;9.60;99.90;;;;;;5094620;28;20203;-86
2024/01/31 04:03:43;;;;;;;32.63;24.87;;;9.30;99.90;;;;;;5095234;28;20167;-85
2024/01/31 04:06:11;;;;;;;31.40;23.67;;;9.20;99.90;;;;;;5096737;28;20163;-88
2024/01/31 04:08:37;;;;;;;33.70;25.30;;;9.10;99.90;;;;;;5098969;28;20255;-87
2024/01/31 04:11:03;;;;;;;32.13;23.93;;;9.00;99.90;;;;;;5098279;28;20178;-82
2024/01/31 04:13:29;;;;;;;32.20;25.07;;;9.00;99.90;;;;;;5099202;28;20623;-83
2024/01/31 04:15:55;;;;;;;31.03;25.50;;;9.20;99.90;;;;;;5098822;28;20171;-86
2024/01/31 04:18:21;;;;;;;29.93;24.77;;;9.30;99.90;;;;;;5098426;28;20342;-84
2024/01/31 04:20:49;;;;;;;33.63;25.40;;;9.20;99.90;;;;;;5098734;28;20194;-88
2024/01/31 04:23:15;;;;;;;33.37;25.17;;;9.10;99.90;;;;;;5098839;28;20661;-84
2024/01/31 04:25:40;;;;;;;31.23;25.57;;;9.00;99.90;;;;;;5098783;28;20179;-83
2024/01/31 04:28:06;;;;;;;34.97;24.23;;;8.90;99.90;;;;;;5098111;28;20712;-89
2024/01/31 04:30:32;;;;;;;29.70;23.13;;;8.90;99.90;;;;;;5116998;28;20209;-84
2024/01/31 04:33:02;;;;;;;38.87;24.73;;;8.90;99.90;;;;;;5098588;28;20532;-87
2024/01/31 04:35:28;;;;;;;34.17;24.03;;;8.90;99.90;;;;;;5098456;28;20512;-87
2024/01/31 04:37:54;;;;;;;33.93;24.83;;;8.90;99.90;;;;;;5098418;28;20171;-84
2024/01/31 04:40:21;;;;;;;33.77;26.70;;;8.90;99.90;;;;;;5098716;28;20232;-87
2024/01/31 04:42:47;;;;;;;31.17;23.73;;;8.90;99.90;;;;;;5098309;28;20209;-87
2024/01/31 04:45:14;;;;;;;33.30;23.83;;;8.90;99.90;;;;;;5099226;28;20214;-84
2024/01/31 04:47:43;;;;;;;29.30;23.03;;;8.90;99.90;;;;;;5102582;28;20176;-84
2024/01/31 04:50:10;;;;;;;30.50;23.80;;;8.80;99.90;;;;;;5099276;28;20223;-86
2024/01/31 04:52:36;;;;;;;30.03;23.80;;;8.90;99.90;;;;;;5097570;28;20218;-84
2024/01/31 04:55:02;;;;;;;35.67;25.30;;;8.90;99.90;;;;;;5098530;28;20195;-86
2024/01/31 04:57:28;;;;;;;32.50;25.47;;;8.90;99.90;;;;;;5098981;28;20535;-84
2024/01/31 04:59:54;;;;;;;33.67;24.90;;;9.20;99.90;;;;;;5099431;28;20581;-85
2024/01/31 05:02:20;;;;;;;33.67;25.90;;;9.30;99.90;;;;;;5097958;28;20293;-89
2024/01/31 05:04:45;;;;;;;35.63;24.53;;;9.20;99.90;;;;;;5097584;28;20170;-83
2024/01/31 05:07:11;;;;;;;31.57;23.80;;;9.30;99.90;;;;;;5116379;28;20166;-85
2024/01/31 05:09:37;;;;;;;29.77;22.20;;;9.10;99.90;;;;;;5115238;28;20167;-85
2024/01/31 05:12:03;;;;;;;32.40;22.87;;;9.20;99.90;;;;;;5097022;28;20223;-84
2024/01/31 05:14:28;;;;;;;30.27;23.23;;;9.10;99.90;;;;;;5097992;28;20203;-86
2024/01/31 05:16:54;;;;;;;31.30;22.83;;;9.10;99.90;;;;;;5114092;28;20195;-85
2024/01/31 05:19:20;;;;;;;31.23;22.30;;;8.90;99.90;;;;;;5097516;28;20179;-88
2024/01/31 05:21:51;;;;;;;29.93;21.57;;;8.80;99.90;;;;;;5096649;28;20223;-84
2024/01/31 05:24:17;;;;;;;28.17;22.37;;;8.80;99.90;;;;;;5097659;28;20266;-84
2024/01/31 05:26:45;;;;;;;27.83;22.57;;;8.80;99.90;;;;;;5097274;28;20639;-87
2024/01/31 05:29:11;;;;;;;28.07;21.77;;;8.80;99.90;;;;;;5115372;28;20163;-89
2024/01/31 05:31:37;;;;;;;28.63;21.87;;;8.70;99.90;;;;;;5096993;28;20200;-86
2024/01/31 05:34:03;;;;;;;28.80;21.83;;;8.60;99.90;;;;;;5115133;28;20591;-88
2024/01/31 05:36:29;;;;;;;32.77;22.63;;;8.70;99.90;;;;;;5097338;28;20665;-85
2024/01/31 05:38:55;;;;;;;28.03;21.13;;;8.70;99.90;;;;;;5095766;28;20293;-89
2024/01/31 05:41:21;;;;;;;27.30;21.27;;;8.80;99.90;;;;;;5097091;28;20251;-84
2024/01/31 05:43:46;;;;;;;27.83;21.07;;;8.80;99.90;;;;;;5097558;28;20634;-83
2024/01/31 05:46:16;;;;;;;25.07;20.07;;;8.80;99.90;;;;;;5096606;28;20169;-83
2024/01/31 05:48:42;;;;;;;28.03;22.07;;;8.80;99.90;;;;;;5096688;28;20243;-83
2024/01/31 05:51:08;;;;;;;25.53;20.00;;;8.80;99.90;;;;;;5097258;28;20171;-87
2024/01/31 05:53:36;;;;;;;27.03;20.67;;;8.90;99.90;;;;;;5097270;28;20208;-86
2024/01/31 05:56:02;;;;;;;26.00;20.93;;;8.80;99.90;;;;;;5095824;28;20164;-86
2024/01/31 05:58:27;;;;;;;28.50;21.17;;;8.90;99.90;;;;;;5096065;28;20195;-84
2024/01/31 06:00:53;;;;;;;31.10;21.60;;;9.10;99.90;;;;;;5096877;28;20224;-87
2024/01/31 06:03:18;;;;;;;27.33;20.37;;;8.90;99.90;;;;;;5101670;28;20167;-86
2024/01/31 06:05:44;;;;;;;28.13;19.53;;;8.90;99.90;;;;;;5122572;28;20170;-84
2024/01/31 06:08:10;;;;;;;28.83;21.40;;;8.90;99.90;;;;;;5107554;28;20212;-85
2024/01/31 06:10:36;;;;;;;27.87;20.63;;;8.90;99.90;;;;;;5096662;28;20175;-84
2024/01/31 06:13:01;;;;;;;26.77;20.63;;;9.00;99.90;;;;;;5096268;28;20167;-83
2024/01/31 06:15:27;;;;;;;28.23;20.43;;;9.00;99.90;;;;;;5095463;28;20669;-84
2024/01/31 06:17:53;;;;;;;24.03;19.43;;;8.90;99.90;;;;;;5096606;28;20200;-86
2024/01/31 06:20:19;;;;;;;25.43;20.03;;;8.90;99.90;;;;;;5096266;28;20805;-86
2024/01/31 06:22:45;;;;;;;25.67;18.33;;;8.80;99.90;;;;;;5094890;28;20271;-83
2024/01/31 06:25:11;;;;;;;26.97;19.57;;;8.80;99.90;;;;;;5095901;28;20179;-86
2024/01/31 06:27:37;;;;;;;28.37;20.90;;;8.90;99.90;;;;;;5096287;28;20533;-87
2024/01/31 06:30:04;;;;;;;28.43;20.13;;;8.80;99.90;;;;;;5101996;28;20192;-85
2024/01/31 06:32:35;;;;;;;27.43;20.43;;;8.80;99.90;;;;;;5108179;28;20178;-83
2024/01/31 06:35:01;;;;;;;24.77;18.87;;;8.70;99.90;;;;;;5099675;28;20175;-86
2024/01/31 06:37:27;;;;;;;27.03;19.37;;;8.90;99.90;;;;;;5095808;28;20197;-83
2024/01/31 06:39:54;;;;;;;27.13;19.60;;;8.80;99.90;;;;;;5094956;28;20630;-89
2024/01/31 06:42:20;;;;;;;26.83;18.13;;;9.00;99.90;;;;;;5096086;28;20218;-83
2024/01/31 06:44:46;;;;;;;24.37;18.67;;;8.90;99.90;;;;;;5098565;28;20615;-83
2024/01/31 06:47:12;;;;;;;24.93;19.13;;;8.80;99.90;;;;;;5095638;28;20232;-82
2024/01/31 06:49:37;;;;;;;27.70;19.80;;;9.00;99.90;;;;;;5093801;28;20171;-87
2024/01/31 06:52:05;;;;;;;25.27;19.33;;;9.00;99.90;;;;;;5112687;28;20171;-86
2024/01/31 06:54:31;;;;;;;26.27;17.80;;;9.00;99.90;;;;;;5095132;28;20186;-89
2024/01/31 06:56:57;;;;;;;24.63;18.60;;;9.00;99.90;;;;;;5094044;28;20208;-86
2024/01/31 06:59:23;;;;;;;23.30;18.13;;;8.90;99.90;;;;;;5094826;28;20252;-84
2024/01/31 07:01:48;;;;;;;23.93;17.40;;;8.90;99.90;;;;;;5095674;28;20678;-83
2024/01/31 07:04:14;;;;;;;26.77;18.57;;;8.80;99.90;;;;;;5094692;28;20619;-84
2024/01/31 07:06:40;;;;;;;23.40;18.20;;;8.90;99.90;;;;;;5100408;28;20213;-91
2024/01/31 07:09:05;;;;;;;27.63;18.97;;;8.80;99.90;;;;;;5097109;28;20171;-87
2024/01/31 07:11:31;;;;;;;27.97;18.47;;;8.90;99.90;;;;;;5094887;28;20177;-86
2024/01/31 07:13:57;;;;;;;24.60;17.63;;;9.00;99.90;;;;;;5095609;28;20531;-85
2024/01/31 07:16:22;;;;;;;25.30;19.10;;;9.10;99.90;;;;;;5095365;28;20653;-84
2024/01/31 07:18:48;;;;;;;22.53;17.93;;;9.20;99.90;;;;;;5107038;28;20541;-87
2024/01/31 07:21:24;;;;;;;24.33;17.07;;;9.00;99.90;;;;;;5095175;28;20222;-85
2024/01/31 07:23:50;;;;;;;28.30;17.37;;;9.00;99.90;;;;;;5094227;28;20181;-87
2024/01/31 07:26:23;;;;;;;26.97;18.53;;;9.00;99.90;;;;;;5094474;28;20171;-89
2024/01/31 07:28:50;;;;;;;23.50;17.37;;;9.10;99.90;;;;;;5094615;28;20190;-89
2024/01/31 07:31:16;;;;;;;26.80;17.90;;;9.00;99.90;;;;;;5095153;28;20167;-88
2024/01/31 07:33:41;;;;;;;27.07;19.43;;;9.10;99.90;;;;;;5094618;28;20248;-88
2024/01/31 07:36:07;;;;;;;25.93;18.77;;;9.30;99.90;;;;;;5093689;28;20175;-86
2024/01/31 07:38:33;;;;;;;23.73;17.50;;;9.10;99.90;;;;;;5093406;28;20235;-86
2024/01/31 07:40:59;;;;;;;23.63;17.40;;;9.00;99.90;;;;;;5095907;28;20640;-86
2024/01/31 07:43:25;;;;;;;26.93;17.83;;;8.90;99.90;;;;;;5098935;28;20166;-87
2024/01/31 07:45:51;;;;;;;25.17;16.77;;;8.80;99.90;;;;;;5098913;28;20196;-84
2024/01/31 07:48:17;;;;;;;26.03;16.70;;;8.90;99.90;;;;;;5099017;28;20199;-85
2024/01/31 07:50:43;;;;;;;25.13;16.63;;;8.90;99.90;;;;;;5098637;28;20237;-88
2024/01/31 07:53:09;;;;;;;25.70;16.67;;;8.90;99.90;;;;;;5098759;28;20697;-87
2024/01/31 07:55:35;;;;;;;26.17;17.30;;;9.00;99.90;;;;;;5099235;28;20214;-86
2024/01/31 07:58:01;;;;;;;23.67;15.67;;;8.80;99.90;;;;;;5098860;28;20233;-86
2024/01/31 08:00:27;;;;;;;23.47;16.10;;;8.70;99.90;;;;;;5098988;28;20322;-87
2024/01/31 08:02:53;;;;;;;23.67;15.57;;;8.60;99.90;;;;;;5097708;28;20210;-87
2024/01/31 08:05:19;;;;;;;28.17;16.20;;;8.80;99.90;;;;;;5098715;28;20167;-85
2024/01/31 08:07:45;;;;;;;26.47;15.87;;;8.80;99.90;;;;;;5099224;28;20197;-85
2024/01/31 08:10:12;;;;;;;21.77;15.00;;;8.80;99.90;;;;;;5097912;28;20592;-85
2024/01/31 08:12:39;;;;;;;22.47;13.87;;;8.80;99.90;;;;;;5099956;28;20171;-87
2024/01/31 08:15:05;;;;;;;23.00;14.27;;;8.90;99.90;;;;;;5098188;28;20197;-88
2024/01/31 08:17:31;;;;;;;23.83;13.57;;;8.70;99.90;;;;;;5103533;28;20174;-85
2024/01/31 08:19:57;;;;;;;16.20;12.57;;;8.80;99.90;;;;;;5108233;28;20167;-87
2024/01/31 08:22:22;;;;;;;14.67;11.63;;;8.80;99.90;;;;;;5102031;28;20648;-87
2024/01/31 08:24:49;;;;;;;18.13;12.93;;;8.80;99.90;;;;;;5116012;28;20175;-87
2024/01/31 08:27:15;;;;;;;16.53;12.00;;;9.00;98.70;;;;;;5097139;28;20239;-87
2024/01/31 08:29:41;;;;;;;15.70;11.27;;;9.10;94.60;;;;;;5097363;28;20210;-87
2024/01/31 08:32:06;;;;;;;19.07;11.33;;;9.20;92.20;;;;;;5097950;28;20175;-89
2024/01/31 08:34:32;;;;;;;16.10;12.27;;;9.10;92.10;;;;;;5097913;28;20581;-88
2024/01/31 08:36:58;;;;;;;17.30;11.40;;;9.20;90.00;;;;;;5098519;28;20198;-87
2024/01/31 08:39:23;;;;;;;16.70;11.70;;;9.20;88.00;;;;;;5098346;28;20627;-88
2024/01/31 08:41:49;;;;;;;21.83;12.60;;;9.10;90.10;;;;;;5097627;28;20202;-88
2024/01/31 08:44:15;;;;;;;16.20;12.03;;;9.10;90.50;;;;;;5099377;28;20175;-89
2024/01/31 08:46:41;;;;;;;20.40;12.40;;;9.10;90.70;;;;;;5102455;28;20178;-87
2024/01/31 08:49:09;;;;;;;21.40;14.00;;;9.20;90.90;;;;;;5098951;28;20171;-90
2024/01/31 08:51:38;;;;;;;16.23;9.37;;;9.20;88.30;;;;;;5124520;28;20159;-89
2024/01/31 08:54:06;;;;;;;16.07;9.87;;;9.30;78.10;;;;;;5108823;28;20181;-90
2024/01/31 08:56:33;;;;;;;18.87;9.90;;;9.20;72.90;;;;;;5110221;28;20175;-87
2024/01/31 08:58:59;;;;;;;14.13;9.07;;;9.20;69.90;;;;;;5102045;28;20285;-91
2024/01/31 09:01:27;;;;;;;14.73;9.00;;;9.10;72.30;;;;;;5106004;28;20671;-85
2024/01/31 09:03:55;;;;;;;13.23;8.80;;;9.30;68.40;;;;;;5102254;28;20171;-90
2024/01/31 09:06:22;;;;;;;16.47;9.40;;;9.20;69.00;;;;;;5100522;28;20190;-89
2024/01/31 09:08:49;;;;;;;17.80;8.47;;;9.00;73.20;;;;;;5098831;28;20185;-91
2024/01/31 09:11:14;;;;;;;13.07;8.37;;;8.80;75.30;;;;;;5111630;28;20173;-88
2024/01/31 09:13:41;;;;;;;14.97;8.17;;;8.70;76.00;;;;;;5099066;28;20230;-88
2024/01/31 09:16:08;;;;;;;13.33;8.30;;;8.80;75.40;;;;;;5098261;28;20183;-88
2024/01/31 09:18:34;;;;;;;13.93;8.13;;;8.80;73.90;;;;;;5097484;28;20244;-90
2024/01/31 09:21:00;;;;;;;12.87;8.17;;;8.80;72.70;;;;;;5097728;28;20293;-87
2024/01/31 09:23:26;;;;;;;10.27;7.60;;;8.70;72.30;;;;;;5097009;28;20223;-90
2024/01/31 09:25:52;;;;;;;11.80;7.33;;;8.90;69.50;;;;;;5115688;28;20179;-93
2024/01/31 09:28:19;;;;;;;11.73;6.77;;;9.00;60.60;;;;;;5098082;28;20639;-88
2024/01/31 09:30:46;;;;;;;9.43;7.00;;;8.80;59.10;;;;;;5098244;28;20266;-87
2024/01/31 09:33:12;;;;;;;9.97;6.90;;;8.80;56.30;;;;;;5096495;28;20167;-87
2024/01/31 09:35:39;;;;;;;9.27;6.90;;;8.80;56.90;;;;;;5098358;28;20178;-89
2024/01/31 09:38:05;;;;;;;10.10;5.90;;;8.80;54.00;;;;;;5103023;28;20206;-87
2024/01/31 09:40:31;;;;;;;9.53;5.70;;;8.80;51.60;;;;;;5107454;28;20178;-87
2024/01/31 09:42:57;;;;;;;8.17;5.87;;;8.80;49.20;;;;;;5098527;28;20264;-90
2024/01/31 09:45:27;;;;;;;10.67;5.60;;;8.80;43.30;;;;;;5098513;28;20266;-88
2024/01/31 09:47:56;;;;;;;10.40;6.20;;;8.90;43.20;;;;;;5096275;28;20202;-83
2024/01/31 09:50:22;;;;;;;8.53;4.60;;;9.30;52.90;;;;;;5095647;28;20179;-81
2024/01/31 09:52:54;;;;;;;8.20;4.63;;;9.70;53.40;;;;;;5095254;28;20189;-82
2024/01/31 09:55:21;;;;;;;7.30;4.43;;;9.90;49.00;;;;;;5097152;28;20269;-90
2024/01/31 09:57:47;;;;;;;6.60;3.50;;;9.80;26.90;;;;;;5098282;28;20187;-89
2024/01/31 10:00:13;;;;;;;5.70;3.30;;;9.50;22.90;;;;;;5097569;28;20182;-91
2024/01/31 10:02:41;;;;;;;5.03;3.00;;;9.30;20.20;;;;;;5095451;28;20355;-89
2024/01/31 10:05:07;;;;;;;7.97;3.70;;;9.30;19.10;;;;;;5094701;28;20571;-88
2024/01/31 10:07:36;;;;;;;6.80;3.70;;;9.20;20.50;;;;;;5097345;28;20574;-93
2024/01/31 10:10:02;;;;;;;5.63;3.63;;;9.20;22.60;;;;;;5095660;28;20233;-87
2024/01/31 10:12:28;;;;;;;5.13;3.33;;;9.20;22.70;;;;;;5114392;28;20166;-87
2024/01/31 10:14:55;;;;;;;6.50;3.37;;;9.10;21.30;;;;;;5096493;28;20171;-87
2024/01/31 10:17:21;;;;;;;5.77;3.20;;;9.00;18.10;;;;;;5098080;28;20181;-88
2024/01/31 10:19:50;;;;;;;11.23;3.90;;;9.00;18.10;;;;;;5096939;28;20259;-85
2024/01/31 10:22:16;;;;;;;6.07;3.17;;;9.00;16.90;;;;;;5095773;28;20314;-86
2024/01/31 10:24:51;;;;;;;6.17;3.33;;;9.10;14.30;;;;;;5096054;28;20575;-86
2024/01/31 10:27:21;;;;;;;4.33;2.73;;;9.00;14.40;;;;;;5096868;28;20596;-85
2024/01/31 10:29:48;;;;;;;6.57;3.37;;;9.10;9.50;;;;;;5101509;28;20192;-87
2024/01/31 10:32:16;;;;;;;7.17;3.20;;;9.20;10.20;;;;;;5100773;28;20174;-87
2024/01/31 10:34:46;;;;;;;6.27;3.43;;;9.20;12.30;;;;;;5096634;28;20227;-86
2024/01/31 10:37:13;;;;;;;7.77;3.30;;;9.20;8.60;;;;;;5096618;28;20203;-87
2024/01/31 10:39:39;;;;;;;7.53;2.63;;;9.40;5.10;;;;;;5096520;28;20229;-87
2024/01/31 10:42:08;;;;;;;6.83;2.90;;;9.40;2.70;;;;;;5096143;28;20213;-87
2024/01/31 10:44:36;;;;;;;4.90;2.40;;;9.40;2.60;;;;;;5095745;28;20257;-87
2024/01/31 10:47:02;;;;;;;3.60;2.23;;;9.20;1.00;;;;;;5095096;28;20212;-87
2024/01/31 10:49:28;;;;;;;5.07;2.23;;;9.10;2.10;;;;;;5096535;28;20178;-86
2024/01/31 10:51:58;;;;;;;4.20;2.20;;;9.00;1.00;;;;;;5096701;28;20175;-86
2024/01/31 10:54:32;;;;;;;6.50;2.50;;;9.00;1.00;;;;;;5096728;28;20187;-87
2024/01/31 10:56:59;;;;;;;3.97;2.10;;;9.00;1.00;;;;;;5095596;28;20177;-88
2024/01/31 10:59:24;;;;;;;7.17;2.70;;;9.10;1.00;;;;;;5105052;28;20203;-88
2024/01/31 11:01:58;;;;;;;4.43;2.20;;;9.10;1.10;;;;;;5122485;28;20210;-87
2024/01/31 11:04:27;;;;;;;4.03;2.00;;;9.10;1.00;;;;;;5108463;28;20216;-86
2024/01/31 11:06:52;;;;;;;5.90;2.20;;;9.10;1.00;;;;;;5100942;28;20229;-85
2024/01/31 11:09:22;;;;;;;5.37;2.10;;;9.10;1.00;;;;;;5097001;28;20170;-86
2024/01/31 11:12:03;;;;;;;3.90;2.30;;;9.30;1.00;;;;;;5095920;28;20167;-86
2024/01/31 11:14:33;;;;;;;3.50;2.00;;;9.30;1.00;;;;;;5095633;28;20166;-86
2024/01/31 11:17:27;;;;;;;4.43;1.90;;;9.20;1.00;;;;;;5095536;28;20311;-86
2024/01/31 11:20:00;;;;;;;4.27;2.23;;;9.10;1.00;;;;;;5096933;28;20225;-87
2024/01/31 11:22:27;;;;;;;5.03;2.10;;;9.20;1.00;;;;;;5095860;28;20692;-87
2024/01/31 11:24:55;;;;;;;4.83;2.00;;;9.30;1.00;;;;;;5098955;28;20178;-87
2024/01/31 11:27:21;;;;;;;2.33;1.60;;;9.30;1.00;;;;;;5118272;28;20178;-86
2024/01/31 11:29:50;;;;;;;3.60;1.77;;;9.30;1.00;;;;;;5102782;28;20170;-87
2024/01/31 11:32:23;;;;;;;4.17;1.90;;;9.30;1.00;;;;;;5096336;28;20175;-87
2024/01/31 11:35:00;;;;;;;4.00;2.10;;;9.20;1.00;;;;;;5097751;28;20190;-87
2024/01/31 11:37:25;;;;;;;6.70;1.90;;;9.30;1.00;;;;;;5098851;28;20201;-85
2024/01/31 11:39:51;;;;;;;6.83;2.20;;;9.40;1.00;;;;;;5133332;28;20205;-87
2024/01/31 11:42:17;;;;;;;7.10;2.67;;;9.50;1.00;;;;;;5119127;28;20208;-87
2024/01/31 11:44:43;;;;;;;7.50;2.10;;;9.50;1.00;;;;;;5117758;28;20180;-87
2024/01/31 11:47:28;;;;;;;6.70;2.27;;;9.50;1.00;;;;;;5104882;28;20222;-87
2024/01/31 11:50:05;;;;;;;3.13;1.87;;;9.30;1.00;;;;;;5098837;28;20253;-87
2024/01/31 11:52:31;;;;;;;4.10;1.80;;;9.30;1.00;;;;;;5120349;28;20182;-86
2024/01/31 11:54:56;;;;;;;6.43;2.17;;;9.40;1.00;;;;;;5104080;28;20182;-85
2024/01/31 11:57:22;;;;;;;6.33;2.70;;;9.50;1.00;;;;;;5095800;28;20546;-88
2024/01/31 11:59:50;;;;;;;4.57;2.20;;;9.30;1.00;;;;;;5095484;28;20191;-88
2024/01/31 12:02:17;;;;;;;3.27;1.80;;;9.30;1.00;;;;;;5095645;28;20217;-87
2024/01/31 12:04:56;;;;;;;4.70;2.27;;;9.40;1.00;;;;;;5094840;28;20182;-85
2024/01/31 12:07:22;;;;;;;4.63;2.13;;;9.50;1.00;;;;;;5094476;28;20623;-88
2024/01/31 12:09:48;;;;;;;4.30;2.10;;;9.50;1.00;;;;;;5095400;28;20195;-87
2024/01/31 12:12:14;;;;;;;5.87;2.47;;;9.60;1.00;;;;;;5093856;28;20310;-87
2024/01/31 12:14:41;;;;;;;7.83;2.53;;;9.70;1.00;;;;;;5084137;28;20175;-88
2024/01/31 12:17:24;;;;;;;8.30;2.40;;;9.80;1.00;;;;;;5095054;28;20189;-87
2024/01/31 12:20:12;;;;;;;8.43;2.67;;;9.80;1.00;;;;;;5080534;28;20623;-85
2024/01/31 12:22:39;;;;;;;6.07;2.70;;;10.00;1.00;;;;;;5094703;28;20281;-88
2024/01/31 12:25:05;;;;;;;7.17;2.40;;;9.90;1.00;;;;;;5113769;28;20163;-88
2024/01/31 12:27:32;;;;;;;5.57;2.53;;;9.70;1.00;;;;;;5096001;28;20228;-85
2024/01/31 12:29:58;;;;;;;4.10;2.10;;;9.70;1.00;;;;;;5100483;28;20171;-87
2024/01/31 12:32:25;;;;;;;4.80;2.93;;;9.80;1.00;;;;;;5100005;28;20311;-87
2024/01/31 12:34:50;;;;;;;12.47;2.70;;;9.80;1.00;;;;;;5098617;28;20193;-87
2024/01/31 12:37:16;;;;;;;7.67;2.73;;;9.70;1.00;;;;;;5100059;28;20702;-86
2024/01/31 12:39:42;;;;;;;4.93;2.30;;;9.70;1.00;;;;;;5100500;28;20175;-86
2024/01/31 12:42:08;;;;;;;6.23;3.10;;;9.70;1.00;;;;;;5098959;28;20255;-88